Startpagina
METAR-TAF:

METAR-TAF

Vliegvelden :

McCarran International Airport

Las Vegas, Nevada, Verenigde Staten

breedte: 36-04-44N, lengte: 115-09-19W, hoogte: 663 m

Actueel weer

Dit bericht is 44 minuten geleden gemaakt, om 07:56 UTC
Wind 7 kt uit het zuidzuidwesten
Temperatuur 27°C
Vochtigheid 6%
Druk 1007 hPa
Zicht: 16.1 km
Onbewolkt

METAR: KLAS 190756Z 20007KT 10SM CLR 27/M14 A2973 RMK AO2 SLP038 T02721144 403720261

Tijdstip: 01:40 (08:40 UTC)

Verwachting

Dit bericht is 3 uur en het 20 minuten geleden gemaakt, om 05:20 UTC
Verwachting geldig van 19 om 06 UTC tot 20 om 12 UTC
Wind 8 kt uit het zuidzuidwesten
Zicht: 10 km
Onbewolkt
Van 19 om 1300 UTC
Wind 8 kt uit het zuiden
Zicht: 10 km
Onbewolkt
Van 19 om 1700 UTC
Wind 10 kt uit het zuidzuidwesten met uitschieters tot 16 kt
Zicht: 10 km
Onbewolkt
Van 20 om 0200 UTC
Wind 9 kt uit het zuidzuidwesten
Zicht: 10 km
Onbewolkt

TAF: KLAS 190520Z 1906/2012 21008KT P6SM SKC FM191300 17008KT P6SM SKC FM191700 20010G16KT P6SM SKC FM200200 20009KT P6SM SKC

Waarnemingen en weersverwachtingen van meer dan 4000 vliegvelden (METAR en TAF).

De beschikbare stations zijn de gele en rode punten op de kaart.

Ga met uw muis naar het station om de naam te zien.

Klik dan om waarnemingen en weersverwachtingen te zien.

kaart wijzigen: klik op de groene knoppen met een zwart kruis om in te zoomen, op de groene knop met een streepje om uit te zoomen of op de groene pijlen voor aangrenzende kaarten.


METAR-TAF: